createdAt,value
2017-09-28T02:07:39.987Z,63.30
2017-09-28T02:10:09.575Z,63.12
2017-09-28T02:12:39.240Z,63.15
2017-09-28T02:15:08.581Z,63.35
2017-09-28T02:17:38.348Z,63.15
2017-09-28T02:20:08.269Z,63.13
2017-09-28T02:22:37.229Z,63.31
2017-09-28T02:25:06.239Z,63.18
2017-09-28T02:27:35.377Z,63.17
2017-09-28T02:30:05.106Z,63.13
2017-09-28T02:32:34.048Z,62.60
2017-09-28T02:35:03.065Z,62.85
2017-09-28T02:37:32.936Z,63.84
2017-09-28T02:40:01.944Z,63.81
2017-09-28T02:42:31.272Z,63.49
2017-09-28T02:45:01.384Z,63.50
2017-09-28T02:47:31.035Z,63.28
2017-09-28T02:50:00.149Z,62.89
2017-09-28T02:52:29.028Z,62.81
2017-09-28T02:54:57.863Z,62.87
2017-09-28T02:57:26.804Z,62.67
2017-09-28T02:59:55.713Z,62.78
2017-09-28T03:02:24.638Z,62.92
2017-09-28T03:04:54.239Z,62.90
2017-09-28T03:07:24.992Z,64.13
2017-09-28T03:09:53.943Z,63.17
2017-09-28T03:12:22.779Z,63.79
2017-09-28T03:14:51.969Z,63.74
2017-09-28T03:17:20.811Z,63.17
2017-09-28T03:19:49.837Z,62.71
2017-09-28T03:22:19.419Z,62.89
2017-09-28T03:24:48.624Z,62.83
2017-09-28T03:27:17.484Z,62.99
2017-09-28T03:29:46.315Z,62.78
2017-09-28T03:32:15.892Z,62.58
2017-09-28T03:34:45.409Z,62.28
2017-09-28T03:37:14.451Z,62.37
2017-09-28T03:39:43.311Z,62.50
2017-09-28T03:42:12.924Z,62.41
2017-09-28T03:44:42.057Z,62.45
2017-09-28T03:47:11.212Z,62.46
2017-09-28T03:49:41.309Z,62.42
2017-09-28T03:54:54.081Z,62.27
2017-09-28T03:57:23.336Z,61.54
2017-09-28T03:59:52.324Z,61.76
2017-09-28T04:02:21.262Z,62.04
2017-09-28T04:04:50.118Z,62.08
2017-09-28T04:07:19.752Z,62.34
2017-09-28T04:09:48.622Z,62.16
2017-09-28T04:12:18.655Z,62.24
2017-09-28T04:14:48.040Z,62.12
2017-09-28T04:17:18.083Z,62.52
2017-09-28T04:19:46.963Z,62.21
2017-09-28T04:22:15.805Z,62.11
2017-09-28T04:24:44.727Z,62.02
2017-09-28T04:27:14.506Z,62.28
2017-09-28T04:29:43.500Z,61.88
2017-09-28T04:32:12.513Z,61.28
2017-09-28T04:34:42.209Z,61.19
2017-09-28T04:37:11.823Z,61.07
2017-09-28T04:39:41.444Z,61.72
2017-09-28T04:42:10.625Z,61.62
2017-09-28T04:44:40.284Z,62.04
2017-09-28T04:47:09.148Z,62.42
2017-09-28T04:49:39.062Z,62.39
2017-09-28T04:52:08.701Z,62.52
2017-09-28T04:54:37.585Z,62.60
2017-09-28T04:57:06.743Z,62.28
2017-09-28T04:59:35.615Z,62.42
2017-09-28T05:02:05.200Z,62.07
2017-09-28T05:04:34.349Z,61.97
2017-09-28T05:07:03.614Z,61.90
2017-09-28T05:09:33.599Z,61.82
2017-09-28T05:12:02.856Z,62.04
2017-09-28T05:14:31.763Z,62.09
2017-09-28T05:17:00.630Z,62.58
2017-09-28T05:19:29.770Z,62.70
2017-09-28T05:21:59.175Z,62.50
2017-09-28T05:24:28.376Z,62.32
2017-09-28T05:26:58.147Z,62.11
2017-09-28T05:29:27.026Z,62.38
2017-09-28T05:31:56.057Z,62.34
2017-09-28T05:34:25.291Z,62.62
2017-09-28T05:36:55.078Z,62.49
2017-09-28T05:39:24.824Z,62.46
2017-09-28T05:41:54.202Z,62.67
2017-09-28T05:44:23.844Z,62.83
2017-09-28T05:46:52.999Z,63.13
2017-09-28T05:49:21.923Z,62.97
2017-09-28T05:51:50.785Z,63.47
2017-09-28T05:54:20.725Z,63.09
2017-09-28T05:56:49.677Z,63.13
2017-09-28T05:59:18.703Z,63.73
2017-09-28T06:01:48.095Z,63.97
2017-09-28T06:04:17.139Z,64.31
2017-09-28T06:06:47.514Z,63.77
2017-09-28T06:09:16.455Z,63.27
2017-09-28T06:11:45.388Z,62.30
2017-09-28T06:14:15.046Z,61.93
2017-09-28T06:16:44.000Z,62.41
2017-09-28T06:19:13.276Z,62.37
2017-09-28T06:21:42.899Z,62.25
2017-09-28T06:24:12.534Z,61.85
2017-09-28T06:26:41.829Z,61.98
2017-09-28T06:29:10.718Z,61.59
2017-09-28T06:31:39.630Z,61.78
2017-09-28T06:34:08.514Z,61.74
2017-09-28T06:36:37.448Z,61.78
2017-09-28T06:39:07.924Z,61.61
2017-09-28T06:41:36.790Z,61.43
2017-09-28T06:44:05.701Z,61.32
2017-09-28T06:46:34.883Z,61.34
2017-09-28T06:49:03.979Z,61.26
2017-09-28T06:51:33.087Z,60.78
2017-09-28T06:54:02.820Z,60.74
2017-09-28T06:56:31.728Z,61.49
2017-09-28T06:59:01.740Z,61.29
2017-09-28T07:01:31.402Z,61.01
2017-09-28T07:04:00.329Z,61.10
2017-09-28T07:06:29.477Z,60.60
2017-09-28T07:08:59.075Z,60.72
2017-09-28T07:11:28.868Z,60.19
2017-09-28T07:13:58.493Z,60.35
2017-09-28T07:16:27.416Z,60.61
2017-09-28T07:18:56.579Z,59.76
2017-09-28T07:21:25.447Z,60.02
2017-09-28T07:23:55.078Z,60.18
2017-09-28T07:26:24.308Z,59.87
2017-09-28T07:28:53.459Z,59.59
2017-09-28T07:31:22.361Z,59.68
2017-09-28T07:33:51.248Z,59.81
2017-09-28T07:36:20.568Z,59.74
2017-09-28T07:38:50.463Z,59.68
2017-09-28T07:41:19.335Z,59.71
2017-09-28T07:43:50.475Z,60.01
2017-09-28T07:46:20.795Z,60.43
2017-09-28T07:48:50.775Z,60.41
2017-09-28T07:51:19.937Z,59.33
2017-09-28T07:53:48.837Z,58.99
2017-09-28T07:56:17.726Z,58.52
2017-09-28T07:58:46.579Z,58.21
2017-09-28T08:01:15.988Z,58.27
2017-09-28T08:03:46.380Z,58.37
2017-09-28T08:06:16.032Z,58.19
2017-09-28T08:08:44.955Z,57.67
2017-09-28T08:11:14.900Z,57.76
2017-09-28T08:13:44.748Z,56.64
2017-09-28T08:16:13.682Z,54.96
2017-09-28T08:18:44.246Z,54.07
2017-09-28T08:21:13.895Z,54.07
2017-09-28T08:23:44.107Z,52.37
2017-09-28T08:26:13.056Z,51.89
2017-09-28T08:28:42.736Z,52.19
2017-09-28T08:31:13.354Z,51.79
2017-09-28T08:33:42.996Z,51.20
2017-09-28T08:36:12.692Z,52.79
2017-09-28T08:38:42.332Z,51.12
2017-09-28T08:41:11.274Z,50.44
2017-09-28T08:43:40.512Z,50.83
2017-09-28T08:46:09.631Z,49.75
2017-09-28T08:48:38.544Z,49.97
2017-09-28T08:51:07.782Z,49.02
2017-09-28T08:53:36.822Z,50.55
2017-09-28T08:56:05.844Z,50.27
2017-09-28T08:58:35.502Z,49.41
2017-09-28T09:01:04.423Z,50.07
2017-09-28T09:03:33.688Z,50.07
2017-09-28T09:06:03.624Z,49.22
2017-09-28T09:08:32.531Z,49.37
2017-09-28T09:11:01.616Z,49.59
2017-09-28T09:13:30.829Z,48.69
2017-09-28T09:16:00.076Z,49.54
2017-09-28T09:18:30.612Z,50.23
2017-09-28T09:21:05.766Z,49.73
2017-09-28T09:23:36.704Z,49.23
2017-09-28T09:30:07.041Z,49.62
2017-09-28T09:44:09.619Z,49.32
2017-09-28T09:46:39.687Z,49.11
2017-09-28T09:49:14.263Z,49.96
2017-09-28T09:52:01.088Z,49.61
2017-09-28T09:54:31.916Z,49.74
2017-09-28T09:59:57.892Z,50.27
2017-09-28T10:02:33.381Z,51.54
2017-09-28T10:06:16.227Z,51.84
2017-09-28T10:09:21.505Z,52.24
2017-09-28T10:15:16.073Z,53.87
2017-09-28T10:17:45.121Z,54.22
2017-09-28T10:20:14.518Z,53.74
2017-09-28T10:23:31.533Z,52.60
2017-09-28T10:26:06.027Z,53.03
2017-09-28T10:28:35.641Z,53.02
2017-09-28T10:31:04.948Z,52.67
2017-09-28T10:33:34.023Z,54.21
2017-09-28T10:36:03.874Z,53.41
2017-09-28T10:38:33.450Z,53.41
2017-09-28T10:41:03.316Z,54.00
2017-09-28T10:43:32.416Z,51.75
2017-09-28T10:46:02.476Z,50.43
2017-09-28T10:48:32.131Z,49.98
2017-09-28T10:51:01.146Z,48.80
2017-09-28T10:53:31.114Z,48.57
2017-09-28T10:56:00.073Z,48.14
2017-09-28T10:58:29.740Z,47.87
2017-09-28T11:00:58.954Z,48.63
2017-09-28T11:03:27.896Z,49.30
2017-09-28T11:05:56.794Z,49.06
2017-09-28T11:08:26.032Z,48.41
2017-09-28T11:10:55.649Z,49.04
2017-09-28T11:13:25.281Z,47.36
2017-09-28T11:15:54.507Z,46.84
2017-09-28T11:18:23.508Z,47.83
2017-09-28T11:20:53.154Z,47.04
2017-09-28T11:23:22.592Z,46.65
2017-09-28T11:25:51.551Z,46.34
2017-09-28T11:28:21.663Z,44.38
2017-09-28T11:30:50.887Z,44.92
2017-09-28T11:33:19.828Z,45.21
2017-09-28T11:35:50.125Z,44.77
2017-09-28T11:38:19.574Z,45.06
2017-09-28T11:40:48.716Z,47.52
2017-09-28T11:43:17.598Z,47.68
2017-09-28T11:45:46.839Z,46.86
2017-09-28T11:48:15.724Z,47.00
2017-09-28T11:50:45.561Z,46.93
2017-09-28T11:53:16.196Z,46.87
2017-09-28T11:55:45.138Z,46.13
2017-09-28T11:58:14.064Z,46.23
2017-09-28T12:00:45.744Z,46.14
2017-09-28T12:03:15.595Z,46.49
2017-09-28T12:05:44.555Z,47.17
2017-09-28T12:08:14.465Z,47.86
2017-09-28T12:10:44.115Z,47.15
2017-09-28T12:13:14.006Z,47.60
2017-09-28T12:15:45.571Z,49.39
2017-09-28T12:18:15.400Z,48.89
2017-09-28T12:20:45.164Z,48.26
2017-09-28T12:23:15.224Z,47.95
2017-09-28T12:25:44.122Z,47.84
2017-09-28T12:28:17.458Z,49.50
2017-09-28T12:30:47.177Z,49.05
2017-09-28T12:33:16.104Z,48.72
2017-09-28T12:35:45.319Z,49.66
2017-09-28T12:38:14.276Z,49.21
2017-09-28T12:40:45.900Z,49.95
2017-09-28T12:43:15.810Z,50.51
2017-09-28T12:45:45.799Z,50.43
2017-09-28T12:48:16.025Z,51.48
2017-09-28T12:50:45.437Z,50.33
2017-09-28T12:53:15.309Z,49.27
2017-09-28T12:55:45.846Z,50.88
2017-09-28T12:58:15.096Z,50.83
2017-09-28T13:00:44.146Z,51.20
2017-09-28T13:03:13.363Z,50.21
2017-09-28T13:05:42.562Z,50.97
2017-09-28T13:08:12.641Z,49.02
2017-09-28T13:10:41.764Z,50.40
2017-09-28T13:13:10.926Z,50.07
2017-09-28T13:15:40.008Z,49.01
2017-09-28T13:18:10.254Z,49.75
2017-09-28T13:20:39.457Z,49.53
2017-09-28T13:23:09.234Z,50.35
2017-09-28T13:25:38.926Z,49.60
2017-09-28T13:28:09.724Z,49.55
2017-09-28T13:30:39.589Z,48.51
2017-09-28T13:33:09.236Z,47.98
2017-09-28T13:35:39.137Z,47.47
2017-09-28T13:38:56.071Z,48.21
2017-09-28T13:41:53.685Z,47.99
2017-09-28T13:54:45.969Z,48.47
2017-09-28T14:10:18.773Z,51.75
2017-09-28T15:03:25.889Z,54.83
2017-09-28T15:06:37.972Z,53.67
2017-09-28T15:09:07.798Z,53.39
2017-09-28T15:11:37.500Z,53.63
2017-09-28T15:14:07.840Z,53.13
2017-09-28T15:16:38.974Z,52.72
2017-09-28T15:19:11.405Z,54.13
2017-09-28T15:21:45.306Z,53.87
2017-09-28T15:24:15.423Z,53.50
2017-09-28T15:26:45.085Z,53.01
2017-09-28T15:29:15.076Z,53.23
2017-09-28T15:31:44.777Z,52.84
2017-09-28T15:34:15.424Z,52.40
2017-09-28T15:36:47.085Z,52.97
2017-09-28T15:39:16.127Z,53.10
2017-09-28T15:41:45.231Z,52.89
2017-09-28T15:44:14.929Z,53.18
2017-09-28T15:46:46.129Z,54.00
2017-09-28T15:49:15.827Z,53.47
2017-09-28T15:51:45.102Z,53.34
2017-09-28T15:54:18.803Z,53.63
2017-09-28T15:56:59.259Z,53.39
2017-09-28T15:59:29.312Z,53.73
2017-09-28T16:01:58.724Z,53.63
2017-09-28T16:04:30.704Z,54.32
2017-09-28T16:07:06.092Z,55.07
2017-09-28T16:09:35.320Z,55.02
2017-09-28T16:12:15.554Z,54.69
2017-09-28T16:14:44.718Z,55.18
2017-09-28T16:17:15.104Z,55.86
2017-09-28T16:19:45.554Z,56.23
2017-09-28T16:32:22.601Z,57.04
2017-09-28T16:35:20.491Z,58.68
2017-09-28T16:38:18.021Z,57.46
2017-09-28T16:40:49.556Z,59.02
2017-09-28T16:43:47.923Z,59.03
2017-09-28T16:53:57.077Z,58.46
2017-09-28T17:30:26.541Z,59.85
2017-09-28T17:45:59.608Z,60.04
2017-09-28T17:56:40.331Z,60.89
2017-09-28T18:01:03.861Z,61.22
2017-09-28T18:05:59.699Z,62.46
2017-09-28T18:08:47.218Z,61.74
2017-09-28T18:11:37.456Z,61.19
2017-09-28T18:14:07.937Z,60.71
2017-09-28T18:16:37.275Z,62.42
2017-09-28T18:19:21.200Z,61.94
2017-09-28T18:21:50.492Z,62.60
2017-09-28T18:24:19.468Z,62.48
2017-09-28T18:29:22.214Z,62.88
2017-09-28T18:31:56.040Z,62.51
2017-09-28T18:34:30.911Z,62.49
2017-09-28T18:36:59.852Z,64.15
2017-09-28T18:39:30.888Z,62.82
2017-09-28T18:41:59.936Z,61.63
2017-09-28T18:44:34.561Z,60.97
2017-09-28T18:47:03.901Z,60.02
2017-09-28T18:49:33.125Z,59.89
2017-09-28T18:52:02.320Z,59.55
2017-09-28T18:54:32.276Z,61.20
2017-09-28T18:57:01.389Z,60.81
2017-09-28T18:59:30.321Z,60.80
2017-09-28T19:02:00.009Z,61.14
2017-09-28T19:04:29.052Z,60.80
2017-09-28T19:07:00.260Z,60.90
2017-09-28T19:09:30.218Z,60.65
2017-09-28T19:11:59.749Z,60.48
2017-09-28T19:14:29.340Z,60.24
2017-09-28T19:16:58.351Z,60.89
2017-09-28T19:19:27.434Z,60.44
2017-09-28T19:21:56.639Z,60.40
2017-09-28T19:24:26.800Z,60.25
2017-09-28T19:26:58.430Z,60.06
2017-09-28T19:29:29.180Z,60.68
2017-09-28T19:31:58.629Z,60.41
2017-09-28T19:34:27.835Z,60.25
2017-09-28T19:36:56.852Z,59.66
2017-09-28T19:42:01.113Z,60.33
2017-09-28T19:44:31.297Z,60.35
2017-09-28T19:47:01.780Z,60.01
2017-09-28T19:49:30.694Z,61.19
2017-09-28T19:51:59.596Z,60.47
2017-09-28T19:54:28.708Z,59.89
2017-09-28T19:56:57.601Z,59.45
2017-09-28T19:59:27.272Z,59.81
2017-09-28T20:01:56.980Z,60.22
2017-09-28T20:04:25.912Z,61.71
2017-09-28T20:06:55.562Z,62.84
2017-09-28T20:09:24.885Z,62.09
2017-09-28T20:11:54.023Z,61.55
2017-09-28T20:14:23.790Z,61.70
2017-09-28T20:16:53.057Z,61.54
2017-09-28T20:19:22.077Z,62.12
2017-09-28T20:21:51.032Z,62.21
2017-09-28T20:24:21.330Z,61.41
2017-09-28T20:26:50.978Z,61.17
2017-09-28T20:29:20.625Z,60.98
2017-09-28T20:31:50.666Z,60.80
2017-09-28T20:34:20.381Z,60.82
2017-09-28T20:36:50.036Z,60.82
2017-09-28T20:39:20.280Z,60.71
2017-09-28T20:41:49.211Z,60.54
2017-09-28T20:44:18.180Z,61.90
2017-09-28T20:46:48.785Z,61.72
2017-09-28T20:49:17.720Z,62.62
2017-09-28T20:51:47.656Z,61.90
2017-09-28T20:54:18.284Z,61.84
2017-09-28T20:56:48.256Z,61.80
2017-09-28T20:59:17.897Z,62.37
2017-09-28T21:01:48.028Z,62.83
2017-09-28T21:04:17.432Z,63.11
2017-09-28T21:06:46.317Z,62.75
2017-09-28T21:09:15.496Z,63.17
2017-09-28T21:11:44.656Z,63.30
2017-09-28T21:14:13.648Z,62.58
2017-09-28T21:16:42.840Z,62.94
2017-09-28T21:19:11.738Z,62.99
2017-09-28T21:21:40.708Z,62.12
2017-09-28T21:24:09.759Z,61.54
2017-09-28T21:26:39.164Z,61.14
2017-09-28T21:31:48.374Z,59.37
2017-09-28T21:34:19.487Z,58.97
2017-09-28T21:36:48.543Z,59.47
2017-09-28T21:39:18.840Z,60.12
2017-09-28T21:41:48.836Z,60.13
2017-09-28T21:44:18.975Z,60.64
2017-09-28T21:46:48.813Z,60.79
2017-09-28T21:49:18.152Z,63.46
2017-09-28T21:51:50.547Z,61.98
2017-09-28T21:54:23.201Z,61.87
2017-09-28T21:57:02.494Z,61.97
2017-09-28T21:59:35.788Z,61.52
2017-09-28T22:07:52.619Z,63.13
2017-09-28T22:10:27.517Z,63.04
2017-09-28T22:13:04.346Z,62.04
2017-09-28T22:15:46.274Z,62.21
2017-09-28T22:18:29.603Z,62.60
2017-09-28T22:26:43.778Z,62.05
2017-09-28T22:29:20.281Z,61.82
2017-09-28T22:43:57.191Z,61.80
2017-09-28T22:46:37.950Z,61.47
2017-09-28T22:49:08.962Z,61.46
2017-09-28T22:51:48.298Z,61.37
2017-09-28T22:57:40.134Z,60.85
2017-09-28T23:03:18.751Z,61.45
2017-09-28T23:05:53.326Z,61.95
2017-09-28T23:08:24.000Z,63.28
2017-09-28T23:13:49.092Z,62.65
